Camp Meeker, CA (95419)

2:21 PM PDT on October 25, 2014 (GMT -0700)
Occidental Western Hills | Change Station
CLOSE
Current Station
Personal Weather Station
Location: Occidental, CA
Elevation: 1348 ft
Nearby Weather Stations

Elev 1348 ft 38.42 °N, 122.98 °W | Updated 3 seconds ago

Overcast
Overcast
58.6 °F
Feels Like 58.6 °F
N
4.0
Wind Variable Wind from South
Gusts 7.4 mph

Today
High -- | Low -- °F
--% Chance of Precip.
Yesterday
High -- | Low -- °F
Precip. -- in
7:30 AM 6:20 PM
Waxing Crescent, 4% visible
Pressure 30.00 in
Visibility 7.0 miles
Clouds Scattered Clouds 2700 ft
Mostly Cloudy 6500 ft
Overcast 10000 ft
Dew Point 58 °F
Humidity 99%
Rainfall 0.58 in
Snow Depth Not available.
UV 1 out of 12
Pollen .10 out of 12
Air Quality Not available.
Flu Activity Sporadic
METAR KSTS 252053Z COR 23009G18KT 7SM -RA SCT027 BKN065 OVC100 18/14 A3001 RMK AO2 RAB00 SLP157 P0001 60002 T01780144 51008

More Conditions Fewer Conditions

Pressure 30.00 in
Visibility 7.0 miles
Clouds Scattered Clouds 2700 ft
Mostly Cloudy 6500 ft
Overcast 10000 ft
Dew Point 58 °F
Humidity 99%
Rainfall 0.58 in
Snow Depth Not available.
UV 1 out of 12
Pollen .10 out of 12
Air Quality Not available.
Flu Activity Sporadic
METAR KSTS 252053Z COR 23009G18KT 7SM -RA SCT027 BKN065 OVC100 18/14 A3001 RMK AO2 RAB00 SLP157 P0001 60002 T01780144 51008

More Conditions Fewer Conditions

10-Day Weather Forecast

Almanac

Astronomy

Oct. 25, 2014 Rise Set
Actual Time 7:30 AM PDT 6:20 PM PDT
Civil Twilight 7:03 AM PDT 6:47 PM PDT
Nautical Twilight 6:32 AM PDT 7:18 PM PDT
Astronomical Twilight 6:02 AM PDT 7:48 PM PDT
Moon 9:14 AM PDT 7:48 PM PDT
Length of Visible Light 11h 43m
Length of Day
10h 49m
Tomorrow will be 2m 17s shorter.
Waxing Crescent, 4% of the Moon is Illuminated
Today
Waxing Crescent
Oct 30
First Quarter
Nov 6
Full
Nov 14
Last Quarter
Nov 22
New

Today's Extremes

State Highs State Lows

Community

WunderPhotos

Upload Photos

1,765,001 photos uploaded!

Nearby

Air Quality

  Air Quality AQ Index Pollutant
Saturday Good
OZONE
Sunday Moderate
PM2.5
Monday Moderate
PM2.5
Tuesday Moderate
PM2.5
Wednesday Moderate
PM2.5

Snow Depth

Station Depth Elevation
CSS Lab 1 in 6900 ft
Ward Creek #3 1 in 6750 ft
Squaw Valley 0 in 8200 ft
Rubicon #2 1 in 7500 ft
Independence Lake 0 in 8450 ft

Earthquake Activity

City Distance Mag. Time & Date
Antioch, California 67 miles 2.7 6:42 AM PDT
2014-10-25
Deer Park, California 27 miles 2.8 6:40 AM PDT
2014-10-25
Minimum magnitude displayed is 2.5.

Coastal Water Temperatures

Place Temperature
Point Reyes, CA 62.1 °F
Arena Cove, CA 64.0 °F
San Francisco, CA 63.0 °F
Richmond, CA 64.0 °F

Nearby Weather Stations